Time;durP1;ratioP1;P1;durP2;ratioP2;P2;SDS_P1;SDS_P2;PMS_P1;PMS_P2;Temp;Humidity;BMP_temperature;BMP_pressure;BME280_temperature;BME280_humidity;BME280_pressure;Samples;Min_cycle;Max_cycle;Signal;HPM_P1;HPM_P2
2022/05/19 00:01:45;;;;;;;1.92;1.00;;;21.30;53.80;;;;;;5105267;28;20024;-65
2022/05/19 00:04:11;;;;;;;0.90;0.90;;;21.30;53.70;;;;;;5105109;28;20032;-65
2022/05/19 00:06:38;;;;;;;2.17;0.70;;;21.30;53.70;;;;;;5105332;28;20028;-65
2022/05/19 00:09:04;;;;;;;1.10;0.75;;;21.30;53.60;;;;;;5104948;28;20036;-65
2022/05/19 00:11:32;;;;;;;0.80;0.77;;;21.20;53.70;;;;;;5105056;28;20044;-61
2022/05/19 00:13:58;;;;;;;0.93;0.85;;;21.20;54.10;;;;;;5087008;28;20024;-65
2022/05/19 00:16:24;;;;;;;0.90;0.70;;;21.20;53.60;;;;;;5104817;28;20028;-65
2022/05/19 00:18:51;;;;;;;1.73;0.73;;;21.10;53.50;;;;;;5104694;28;20035;-65
2022/05/19 00:21:17;;;;;;;0.80;0.80;;;21.10;53.60;;;;;;5104909;28;20024;-65
2022/05/19 00:23:43;;;;;;;1.15;0.80;;;21.10;54.50;;;;;;5104717;28;20024;-65
2022/05/19 00:26:09;;;;;;;1.38;1.00;;;21.00;55.40;;;;;;5101398;28;20020;-65
2022/05/19 00:28:35;;;;;;;0.82;0.75;;;21.00;55.00;;;;;;5103171;28;20044;-65
2022/05/19 00:31:01;;;;;;;1.13;0.90;;;21.00;55.00;;;;;;5100987;28;20073;-65
2022/05/19 00:33:27;;;;;;;0.95;0.70;;;20.90;54.70;;;;;;5104994;28;20028;-65
2022/05/19 00:35:53;;;;;;;0.68;0.63;;;20.90;54.80;;;;;;5104711;28;20028;-65
2022/05/19 00:38:19;;;;;;;1.98;0.95;;;20.90;54.70;;;;;;5088799;28;20085;-66
2022/05/19 00:40:50;;;;;;;0.70;0.65;;;20.90;54.90;;;;;;5104733;28;20042;-65
2022/05/19 00:43:27;;;;;;;1.00;0.80;;;20.90;54.90;;;;;;5104579;28;20088;-65
2022/05/19 00:46:15;;;;;;;0.85;0.73;;;20.90;54.90;;;;;;5087708;28;20028;-65
2022/05/19 00:49:03;;;;;;;1.05;0.70;;;20.90;54.80;;;;;;5072549;28;20062;-65
2022/05/19 00:52:12;;;;;;;1.30;0.70;;;20.90;54.80;;;;;;5066056;28;20036;-64
2022/05/19 00:55:02;;;;;;;0.82;0.80;;;20.90;54.70;;;;;;5001904;28;20038;-65
2022/05/19 00:57:30;;;;;;;1.63;0.68;;;20.90;54.60;;;;;;5001888;28;20090;-64
2022/05/19 01:00:02;;;;;;;1.08;0.80;;;20.90;54.50;;;;;;5017092;28;20042;-64
2022/05/19 01:02:34;;;;;;;0.77;0.60;;;20.90;54.40;;;;;;5005286;28;20030;-65
2022/05/19 01:05:04;;;;;;;0.80;0.80;;;20.90;54.40;;;;;;5021145;28;20641;-65
2022/05/19 01:07:43;;;;;;;1.02;0.90;;;20.90;54.30;;;;;;5005179;28;20033;-63
2022/05/19 01:10:10;;;;;;;0.80;0.60;;;20.90;54.20;;;;;;5006618;28;20069;-66
2022/05/19 01:12:36;;;;;;;0.60;0.60;;;21.00;54.20;;;;;;5005221;28;20498;-65
2022/05/19 01:15:03;;;;;;;0.60;0.60;;;21.00;54.10;;;;;;5004582;28;20036;-65
2022/05/19 01:17:29;;;;;;;1.23;0.70;;;21.00;54.00;;;;;;5021091;28;20033;-65
2022/05/19 01:19:57;;;;;;;0.82;0.70;;;21.00;53.90;;;;;;5020854;28;20105;-65
2022/05/19 01:22:45;;;;;;;1.35;0.70;;;21.00;53.90;;;;;;5007402;28;20022;-64
2022/05/19 01:25:37;;;;;;;0.60;0.60;;;21.00;53.80;;;;;;5048558;28;20066;-64
2022/05/19 01:28:04;;;;;;;0.82;0.70;;;21.00;53.70;;;;;;5037611;28;20032;-65
2022/05/19 01:30:30;;;;;;;0.80;0.77;;;21.00;53.60;;;;;;5102936;28;20079;-63
2022/05/19 01:32:56;;;;;;;0.82;0.82;;;21.10;53.70;;;;;;5103791;28;20020;-65
2022/05/19 01:35:23;;;;;;;0.70;0.70;;;21.10;53.50;;;;;;5086103;28;20021;-64
2022/05/19 01:37:50;;;;;;;0.70;0.70;;;21.10;53.50;;;;;;5094813;28;20028;-65
2022/05/19 01:40:27;;;;;;;0.60;0.60;;;21.10;53.40;;;;;;5109135;28;20047;-65
2022/05/19 01:43:20;;;;;;;1.15;0.90;;;21.10;53.40;;;;;;5085144;28;20120;-65
2022/05/19 01:46:00;;;;;;;0.50;0.50;;;21.10;53.30;;;;;;5060230;28;20096;-64
2022/05/19 01:48:44;;;;;;;0.75;0.73;;;21.20;53.30;;;;;;5070080;28;20040;-65
2022/05/19 01:51:22;;;;;;;0.60;0.50;;;21.20;53.20;;;;;;5082378;28;20044;-64
2022/05/19 01:53:50;;;;;;;;;;;21.20;53.20;;;;;;5083226;28;20033;-63
2022/05/19 01:56:36;;;;;;;0.73;0.70;;;21.20;53.10;;;;;;5082746;28;20045;-64
2022/05/19 01:59:11;;;;;;;0.68;0.60;;;21.20;53.10;;;;;;5072797;28;20036;-65
2022/05/19 02:01:38;;;;;;;0.50;0.50;;;21.20;53.00;;;;;;5103038;28;20020;-64
2022/05/19 02:04:17;;;;;;;1.90;0.57;;;21.20;53.00;;;;;;5068477;28;20039;-64
2022/05/19 02:06:49;;;;;;;0.70;0.70;;;21.30;52.90;;;;;;5085887;28;20050;-63
2022/05/19 02:09:21;;;;;;;0.63;0.60;;;21.30;52.90;;;;;;5084494;28;20036;-64
2022/05/19 02:11:54;;;;;;;0.70;0.60;;;21.30;52.80;;;;;;5102579;28;20046;-64
2022/05/19 02:14:22;;;;;;;0.75;0.60;;;21.30;52.80;;;;;;5084916;28;20091;-63
2022/05/19 02:16:48;;;;;;;1.00;0.80;;;21.30;52.70;;;;;;5084479;28;20040;-64
2022/05/19 02:19:17;;;;;;;1.08;0.98;;;21.30;52.60;;;;;;5084364;28;20031;-65
2022/05/19 02:21:44;;;;;;;0.55;0.55;;;21.30;52.60;;;;;;5068207;28;20103;-64
2022/05/19 02:24:10;;;;;;;0.52;0.52;;;21.30;52.60;;;;;;5081635;28;20032;-67
2022/05/19 02:26:39;;;;;;;0.95;0.88;;;21.40;52.50;;;;;;5084323;28;20055;-64
2022/05/19 02:29:07;;;;;;;0.90;0.70;;;21.40;52.40;;;;;;5100971;28;20052;-64
2022/05/19 02:31:33;;;;;;;0.55;0.55;;;21.40;52.40;;;;;;5083583;28;20073;-65
2022/05/19 02:33:59;;;;;;;0.75;0.70;;;21.40;52.30;;;;;;5102808;28;20672;-64
2022/05/19 02:36:25;;;;;;;0.68;0.60;;;21.40;52.20;;;;;;5102419;28;20036;-64
2022/05/19 02:38:52;;;;;;;0.75;0.75;;;21.40;52.20;;;;;;5082492;28;20032;-64
2022/05/19 02:41:18;;;;;;;0.70;0.70;;;21.40;52.10;;;;;;5107368;28;20041;-64
2022/05/19 02:43:44;;;;;;;1.17;0.65;;;21.40;52.10;;;;;;5102385;28;20069;-64
2022/05/19 02:46:10;;;;;;;0.98;0.70;;;21.50;52.10;;;;;;5102458;28;20047;-64
2022/05/19 02:48:36;;;;;;;0.70;0.60;;;21.50;52.10;;;;;;5086150;28;20024;-64
2022/05/19 02:51:04;;;;;;;0.80;0.80;;;21.50;52.10;;;;;;5081565;28;20047;-64
2022/05/19 02:53:29;;;;;;;;;;;21.50;52.10;;;;;;5082725;28;20114;-63
2022/05/19 02:55:55;;;;;;;0.93;0.80;;;21.50;52.10;;;;;;5082000;28;20345;-64
2022/05/19 02:58:22;;;;;;;0.88;0.80;;;21.50;52.20;;;;;;5084367;28;20059;-63
2022/05/19 03:00:48;;;;;;;0.82;0.80;;;21.50;52.20;;;;;;5101938;28;20036;-63
2022/05/19 03:03:14;;;;;;;0.95;0.88;;;21.50;52.20;;;;;;5103943;28;20024;-63
2022/05/19 03:05:41;;;;;;;0.80;0.80;;;21.50;52.20;;;;;;5108974;28;20040;-63
2022/05/19 03:08:07;;;;;;;0.70;0.70;;;21.50;52.10;;;;;;5092248;28;20028;-63
2022/05/19 03:10:35;;;;;;;1.42;0.80;;;21.50;52.20;;;;;;5092173;28;20036;-63
2022/05/19 03:13:02;;;;;;;1.38;0.80;;;21.50;52.20;;;;;;5106218;28;20028;-63
2022/05/19 03:15:28;;;;;;;0.70;0.70;;;21.50;52.20;;;;;;5106063;28;20028;-62
2022/05/19 03:17:54;;;;;;;0.85;0.80;;;21.60;52.20;;;;;;5106187;28;20028;-62
2022/05/19 03:20:20;;;;;;;0.82;0.70;;;21.60;52.10;;;;;;5105718;28;20027;-63
2022/05/19 03:22:46;;;;;;;0.60;0.60;;;21.60;52.10;;;;;;5108939;28;20039;-63
2022/05/19 03:25:12;;;;;;;0.60;0.60;;;21.60;52.10;;;;;;5105912;28;20102;-63
2022/05/19 03:27:39;;;;;;;2.20;0.90;;;21.60;52.00;;;;;;5105686;28;20031;-62
2022/05/19 03:30:07;;;;;;;0.80;0.80;;;21.60;52.00;;;;;;5092706;28;20059;-63
2022/05/19 03:32:33;;;;;;;1.00;0.90;;;21.60;51.90;;;;;;5085609;28;20038;-63
2022/05/19 03:35:00;;;;;;;1.20;0.80;;;21.60;51.90;;;;;;5085572;28;20024;-63
2022/05/19 03:37:26;;;;;;;0.80;0.80;;;21.60;51.90;;;;;;5093429;28;20461;-63
2022/05/19 03:39:52;;;;;;;1.10;0.82;;;21.60;51.80;;;;;;5111807;28;20027;-61
2022/05/19 03:42:18;;;;;;;0.95;0.80;;;21.60;51.80;;;;;;5105725;28;20431;-63
2022/05/19 03:44:44;;;;;;;0.80;0.80;;;21.60;51.80;;;;;;5105574;28;20046;-63
2022/05/19 03:47:10;;;;;;;0.93;0.80;;;21.60;51.80;;;;;;5101371;28;20045;-62
2022/05/19 03:49:36;;;;;;;0.88;0.85;;;21.60;51.80;;;;;;5085312;28;20016;-63
2022/05/19 03:52:04;;;;;;;1.10;1.00;;;21.60;51.70;;;;;;5084629;28;20036;-63
2022/05/19 03:54:29;;;;;;;;;;;21.60;51.80;;;;;;5085313;28;20029;-63
2022/05/19 03:56:56;;;;;;;1.10;1.00;;;21.60;51.80;;;;;;5085063;28;19908;-63
2022/05/19 03:59:22;;;;;;;0.80;0.80;;;21.60;51.80;;;;;;5095905;28;20035;-63
2022/05/19 04:01:48;;;;;;;0.93;0.90;;;21.60;51.90;;;;;;5105047;28;20043;-63
2022/05/19 04:04:14;;;;;;;0.90;0.80;;;21.60;51.90;;;;;;5105320;28;20028;-63
2022/05/19 04:06:40;;;;;;;1.20;1.10;;;21.60;51.90;;;;;;5105105;28;20505;-62
2022/05/19 04:09:06;;;;;;;1.10;1.00;;;21.60;52.00;;;;;;5105300;28;20032;-63
2022/05/19 04:11:33;;;;;;;2.87;1.00;;;21.60;52.00;;;;;;5104946;28;20047;-63
2022/05/19 04:13:59;;;;;;;1.52;1.10;;;21.60;52.00;;;;;;5104551;28;20103;-62
2022/05/19 04:16:25;;;;;;;1.30;0.88;;;21.60;52.00;;;;;;5104494;28;20115;-63
2022/05/19 04:18:51;;;;;;;1.30;1.15;;;21.60;52.00;;;;;;5104746;28;20036;-62
2022/05/19 04:21:17;;;;;;;1.33;1.13;;;21.60;51.90;;;;;;5096988;28;20051;-62
2022/05/19 04:23:43;;;;;;;0.80;0.80;;;21.60;51.90;;;;;;5084606;28;20032;-63
2022/05/19 04:26:09;;;;;;;1.20;1.10;;;21.60;51.90;;;;;;5084278;28;20036;-62
2022/05/19 04:28:35;;;;;;;1.30;1.20;;;21.60;51.90;;;;;;5088891;28;20092;-63
2022/05/19 04:31:02;;;;;;;1.27;1.17;;;21.60;51.90;;;;;;5101050;28;20112;-62
2022/05/19 04:33:28;;;;;;;1.27;1.13;;;21.60;52.00;;;;;;5104549;28;20031;-62
2022/05/19 04:35:54;;;;;;;1.08;0.98;;;21.60;52.00;;;;;;5104531;28;20027;-62
2022/05/19 04:38:21;;;;;;;1.60;1.33;;;21.60;52.00;;;;;;5089084;28;20110;-62
2022/05/19 04:40:48;;;;;;;1.88;1.20;;;21.60;52.10;;;;;;5086812;28;20038;-63
2022/05/19 04:43:19;;;;;;;1.55;1.10;;;21.60;52.10;;;;;;5104202;28;20086;-61
2022/05/19 04:45:48;;;;;;;1.08;0.98;;;21.60;52.20;;;;;;5104291;28;20057;-62
2022/05/19 04:48:14;;;;;;;1.75;1.30;;;21.60;52.20;;;;;;5091069;28;20028;-62
2022/05/19 04:50:40;;;;;;;1.38;1.17;;;21.60;52.20;;;;;;5083732;28;20066;-62
2022/05/19 04:53:06;;;;;;;1.30;1.20;;;21.60;52.20;;;;;;5083536;28;20035;-62
2022/05/19 04:55:34;;;;;;;1.73;1.33;;;21.60;52.20;;;;;;5092319;28;20056;-63
2022/05/19 04:58:00;;;;;;;1.50;1.30;;;21.60;52.40;;;;;;5076832;28;20020;-37
2022/05/19 05:00:26;;;;;;;1.48;1.27;;;21.60;52.60;;;;;;5089655;28;20047;-37
2022/05/19 05:02:52;;;;;;;1.50;1.40;;;21.70;52.70;;;;;;5094738;28;20051;-37
2022/05/19 05:05:18;;;;;;;2.67;1.60;;;21.70;53.00;;;;;;5122747;28;20028;-37
2022/05/19 05:07:44;;;;;;;4.70;2.03;;;21.70;53.00;;;;;;5117107;28;20015;-37
2022/05/19 05:10:10;;;;;;;3.50;1.80;;;21.70;53.00;;;;;;5089507;28;20034;-38
2022/05/19 05:12:37;;;;;;;3.00;2.10;;;21.80;53.10;;;;;;5100373;28;20047;-38
2022/05/19 05:15:03;;;;;;;4.47;2.10;;;21.80;53.20;;;;;;5095507;28;20028;-38
2022/05/19 05:17:29;;;;;;;3.83;2.10;;;21.80;53.30;;;;;;5093742;28;20066;-38
2022/05/19 05:19:55;;;;;;;2.55;2.15;;;21.80;53.30;;;;;;5095345;28;20033;-38
2022/05/19 05:22:22;;;;;;;4.90;2.50;;;21.80;53.40;;;;;;5095503;28;20109;-38
2022/05/19 05:24:48;;;;;;;4.28;2.75;;;21.90;53.50;;;;;;5090780;28;20026;-37
2022/05/19 05:27:14;;;;;;;5.40;2.65;;;21.90;53.50;;;;;;5092701;28;20024;-38
2022/05/19 05:29:40;;;;;;;3.45;3.03;;;21.90;53.50;;;;;;5091282;28;20595;-38
2022/05/19 05:32:06;;;;;;;2.92;2.60;;;21.90;53.50;;;;;;5092567;28;20051;-38
2022/05/19 05:34:34;;;;;;;6.87;3.20;;;21.90;53.50;;;;;;5092588;28;20025;-38
2022/05/19 05:37:00;;;;;;;3.75;3.15;;;21.90;53.60;;;;;;5092660;28;20578;-38
2022/05/19 05:39:26;;;;;;;3.65;3.28;;;21.90;53.60;;;;;;5093288;28;20682;-38
2022/05/19 05:41:52;;;;;;;3.47;3.17;;;22.00;53.50;;;;;;5092562;28;20028;-38
2022/05/19 05:44:18;;;;;;;4.72;3.70;;;22.00;53.60;;;;;;5090885;28;20032;-38
2022/05/19 05:46:45;;;;;;;4.05;3.65;;;22.00;53.60;;;;;;5100238;28;20060;-38
2022/05/19 05:49:11;;;;;;;3.90;3.55;;;22.00;53.50;;;;;;5095898;28;20028;-38
2022/05/19 05:51:37;;;;;;;6.25;3.70;;;22.00;53.60;;;;;;5095540;28;20067;-38
2022/05/19 05:54:03;;;;;;;5.55;3.70;;;22.00;53.50;;;;;;5100754;28;20075;-37
2022/05/19 05:56:30;;;;;;;4.15;3.60;;;22.10;53.60;;;;;;5099078;28;20032;-38
2022/05/19 05:58:56;;;;;;;5.22;4.28;;;22.10;53.70;;;;;;5087602;28;20046;-37
2022/05/19 06:01:22;;;;;;;4.10;3.55;;;22.10;53.70;;;;;;5094758;28;20031;-38
2022/05/19 06:03:48;;;;;;;5.50;3.88;;;22.10;53.80;;;;;;5088584;28;20385;-37
2022/05/19 06:06:15;;;;;;;4.20;3.80;;;22.10;53.90;;;;;;5096601;28;20023;-37
2022/05/19 06:08:41;;;;;;;4.37;3.97;;;22.10;53.90;;;;;;5102647;28;20032;-37
2022/05/19 06:11:08;;;;;;;4.80;4.30;;;22.10;53.90;;;;;;5111549;28;20127;-37
2022/05/19 06:13:34;;;;;;;5.10;4.60;;;22.10;53.90;;;;;;5095347;28;20028;-38
2022/05/19 06:16:00;;;;;;;4.68;4.28;;;22.20;53.90;;;;;;5093960;28;20179;-37
2022/05/19 06:18:26;;;;;;;4.93;4.38;;;22.20;54.20;;;;;;5094488;28;20027;-37
2022/05/19 06:20:52;;;;;;;4.57;4.18;;;22.20;53.90;;;;;;5100134;28;20073;-37
2022/05/19 06:23:18;;;;;;;5.85;4.70;;;22.20;54.00;;;;;;5093496;28;20067;-37
2022/05/19 06:25:45;;;;;;;5.13;4.63;;;22.20;53.90;;;;;;5096926;28;20040;-37
2022/05/19 06:28:11;;;;;;;5.38;4.88;;;22.20;53.90;;;;;;5097958;28;20034;-37
2022/05/19 06:30:38;;;;;;;5.47;4.97;;;22.20;53.90;;;;;;5099885;28;20044;-37
2022/05/19 06:33:05;;;;;;;5.75;5.25;;;22.20;53.80;;;;;;5092825;28;20036;-37
2022/05/19 06:35:31;;;;;;;;;;;22.30;53.90;;;;;;5100845;28;20032;-38
2022/05/19 06:37:57;;;;;;;5.30;4.80;;;22.30;53.80;;;;;;5092465;28;19908;-37
2022/05/19 06:40:24;;;;;;;6.35;5.70;;;22.30;53.90;;;;;;5092666;28;20103;-38
2022/05/19 06:42:50;;;;;;;5.97;5.40;;;22.30;53.80;;;;;;5099413;28;20038;-35
2022/05/19 06:45:19;;;;;;;5.80;5.30;;;22.30;53.80;;;;;;5096484;28;20028;-35
2022/05/19 06:47:46;;;;;;;5.97;5.38;;;22.30;53.80;;;;;;5098438;28;20028;-36
2022/05/19 06:50:13;;;;;;;9.10;5.43;;;22.30;53.90;;;;;;5101014;28;20048;-36
2022/05/19 06:52:44;;;;;;;7.55;5.80;;;22.30;53.90;;;;;;5087987;28;20047;-36
2022/05/19 06:55:10;;;;;;;6.20;5.60;;;22.30;54.40;;;;;;5093712;28;20032;-36
2022/05/19 06:57:36;;;;;;;6.45;5.85;;;22.40;53.90;;;;;;5096083;28;20564;-36
2022/05/19 07:00:03;;;;;;;5.47;4.97;;;22.40;53.90;;;;;;5095662;28;20028;-36
2022/05/19 07:02:29;;;;;;;6.63;6.03;;;22.40;53.80;;;;;;5092507;28;20028;-36
2022/05/19 07:04:55;;;;;;;6.97;5.90;;;22.40;53.80;;;;;;5085509;28;20032;-36
2022/05/19 07:07:22;;;;;;;6.20;5.60;;;22.40;53.80;;;;;;5093331;28;20028;-35
2022/05/19 07:09:48;;;;;;;6.30;5.70;;;22.40;53.80;;;;;;5071948;28;20031;-36
2022/05/19 07:12:23;;;;;;;6.70;6.10;;;22.40;53.80;;;;;;5095229;28;20055;-35
2022/05/19 07:14:50;;;;;;;6.68;5.97;;;22.40;53.80;;;;;;5067614;28;20091;-36
2022/05/19 07:17:17;;;;;;;6.47;5.88;;;22.40;53.80;;;;;;5098616;28;20038;-36
2022/05/19 07:22:28;;;;;;;7.05;6.13;;;22.40;53.70;;;;;;5094896;28;20053;-36
2022/05/19 07:24:55;;;;;;;6.75;5.97;;;22.40;53.70;;;;;;5091501;28;20637;-35
2022/05/19 07:27:21;;;;;;;6.60;5.90;;;22.50;53.80;;;;;;5099177;28;20048;-36
2022/05/19 07:29:47;;;;;;;7.05;6.35;;;22.40;53.70;;;;;;5096590;28;20097;-36
2022/05/19 07:32:13;;;;;;;7.40;6.70;;;22.50;53.70;;;;;;5084762;28;20063;-36
2022/05/19 07:34:40;;;;;;;6.90;6.20;;;22.50;53.80;;;;;;5099540;28;20047;-35
2022/05/19 07:37:06;;;;;;;7.00;6.40;;;22.50;53.80;;;;;;5093717;28;20036;-35
2022/05/19 07:39:33;;;;;;;8.60;6.45;;;22.50;53.80;;;;;;5088738;28;20796;-36
2022/05/19 07:41:59;;;;;;;7.45;6.80;;;22.50;53.80;;;;;;5098908;28;20043;-35
2022/05/19 07:44:26;;;;;;;7.55;6.80;;;22.50;53.80;;;;;;5098871;28;20047;-36
2022/05/19 07:46:53;;;;;;;6.80;6.20;;;22.50;53.80;;;;;;5094574;28;20050;-36
2022/05/19 07:49:19;;;;;;;7.47;6.78;;;22.50;53.80;;;;;;5098771;28;20531;-35
2022/05/19 07:51:45;;;;;;;7.13;6.53;;;22.50;53.80;;;;;;5089090;28;20051;-36
2022/05/19 07:54:17;;;;;;;7.05;6.45;;;22.50;53.90;;;;;;5102168;28;20032;-35
2022/05/19 07:56:44;;;;;;;7.78;7.07;;;22.50;53.90;;;;;;5107353;28;20080;-36
2022/05/19 07:59:10;;;;;;;8.10;7.40;;;22.50;53.90;;;;;;5100705;28;20032;-36
2022/05/19 08:01:37;;;;;;;7.07;6.47;;;22.50;53.90;;;;;;5098771;28;20060;-36
2022/05/19 08:04:03;;;;;;;7.67;6.97;;;22.50;54.00;;;;;;5080052;28;20028;-36
2022/05/19 08:06:29;;;;;;;7.75;7.05;;;22.50;54.00;;;;;;5089574;28;20037;-36
2022/05/19 08:08:58;;;;;;;8.03;7.30;;;22.50;54.00;;;;;;5102005;28;20040;-36
2022/05/19 08:11:25;;;;;;;7.43;6.72;;;22.50;54.10;;;;;;5104212;28;20123;-35
2022/05/19 08:16:35;;;;;;;7.50;6.90;;;22.50;54.00;;;;;;5093130;28;20058;-35
2022/05/19 08:19:02;;;;;;;8.13;7.35;;;22.50;54.00;;;;;;5103958;28;20040;-36
2022/05/19 08:21:28;;;;;;;7.55;6.95;;;22.50;54.00;;;;;;5103309;28;20031;-36
2022/05/19 08:23:54;;;;;;;7.93;7.22;;;22.60;54.10;;;;;;5094120;28;20043;-36
2022/05/19 08:26:21;;;;;;;7.75;7.05;;;22.60;54.20;;;;;;5096179;28;20059;-36
2022/05/19 08:28:49;;;;;;;8.07;7.38;;;22.60;54.10;;;;;;5089407;28;20031;-36
2022/05/19 08:31:21;;;;;;;8.15;7.45;;;22.50;54.10;;;;;;5103726;28;20032;-36
2022/05/19 08:33:47;;;;;;;7.93;7.22;;;22.60;54.10;;;;;;5090279;28;20033;-36
2022/05/19 08:36:14;;;;;;;8.05;7.25;;;22.60;54.10;;;;;;5102243;28;20027;-36
2022/05/19 08:38:40;;;;;;;7.95;7.25;;;22.60;54.00;;;;;;5098728;28;20032;-36
2022/05/19 08:41:39;;;;;;;7.63;7.03;;;22.50;54.00;;;;;;5097482;28;20042;-36
2022/05/19 08:44:24;;;;;;;8.45;7.60;;;22.60;54.00;;;;;;4999754;28;20071;-36
2022/05/19 08:46:51;;;;;;;8.32;7.63;;;22.60;54.60;;;;;;4978374;28;20050;-36
2022/05/19 08:49:22;;;;;;;;;;;22.60;53.90;;;;;;4984431;28;20062;-36
2022/05/19 08:51:55;;;;;;;7.63;6.90;;;22.60;53.80;;;;;;5000085;28;19921;-36
2022/05/19 08:54:23;;;;;;;7.90;7.20;;;22.60;54.10;;;;;;4984036;28;20049;-36
2022/05/19 08:57:24;;;;;;;8.20;7.40;;;22.60;54.10;;;;;;4990530;28;20034;-35
2022/05/19 09:00:11;;;;;;;8.25;7.53;;;22.60;54.20;;;;;;4985806;28;20141;-36
2022/05/19 09:02:59;;;;;;;7.90;7.10;;;22.50;54.00;;;;;;5000414;28;20869;-36
2022/05/19 09:05:45;;;;;;;;;;;22.60;54.10;;;;;;4987266;28;20030;-36
2022/05/19 09:08:48;;;;;;;7.18;6.57;;;22.60;53.90;;;;;;4980239;28;19929;-36
2022/05/19 09:11:18;;;;;;;7.82;7.13;;;22.60;54.10;;;;;;5000420;28;20058;-36
2022/05/19 09:14:03;;;;;;;9.05;7.65;;;22.50;54.00;;;;;;5001827;28;20037;-36
2022/05/19 09:16:34;;;;;;;8.68;7.88;;;22.50;54.10;;;;;;5000399;28;20022;-37
2022/05/19 09:19:06;;;;;;;7.45;6.75;;;22.60;54.10;;;;;;5015382;28;20039;-36
2022/05/19 09:21:34;;;;;;;8.77;7.97;;;22.50;54.00;;;;;;5098869;28;20711;-36
2022/05/19 09:24:00;;;;;;;9.07;8.18;;;22.50;54.00;;;;;;5079874;28;20846;-36
2022/05/19 09:26:47;;;;;;;8.85;8.05;;;22.50;54.00;;;;;;5104764;28;20024;-36
2022/05/19 09:29:29;;;;;;;8.55;7.75;;;22.50;54.00;;;;;;5086266;28;20066;-36
2022/05/19 09:32:09;;;;;;;8.93;8.13;;;22.50;54.10;;;;;;5092696;28;20519;-36
2022/05/19 09:34:35;;;;;;;8.85;8.13;;;22.50;54.10;;;;;;5099521;28;20020;-35
2022/05/19 09:37:14;;;;;;;8.53;7.77;;;22.50;54.10;;;;;;5092067;28;20036;-35
2022/05/19 09:39:47;;;;;;;8.70;8.00;;;22.50;54.10;;;;;;5076370;28;20091;-36
2022/05/19 09:42:15;;;;;;;9.35;8.55;;;22.50;54.10;;;;;;5094086;28;20054;-36
2022/05/19 09:44:51;;;;;;;9.80;8.90;;;22.50;54.10;;;;;;5081796;28;20106;-36
2022/05/19 09:47:20;;;;;;;9.27;8.48;;;22.50;54.10;;;;;;5072588;28;20016;-36
2022/05/19 09:49:54;;;;;;;9.27;8.38;;;22.50;54.10;;;;;;5089494;28;20036;-36
2022/05/19 09:52:24;;;;;;;8.43;7.63;;;22.50;54.10;;;;;;5072288;28;20047;-36
2022/05/19 09:54:56;;;;;;;9.57;8.68;;;22.50;54.10;;;;;;5092078;28;20029;-36
2022/05/19 09:57:47;;;;;;;10.07;9.18;;;22.50;54.10;;;;;;5088275;28;20108;-36
2022/05/19 10:00:52;;;;;;;9.60;8.70;;;22.50;54.00;;;;;;5082953;28;20042;-36
2022/05/19 10:03:39;;;;;;;9.90;9.10;;;22.50;54.10;;;;;;5068120;28;20099;-36
2022/05/19 10:06:14;;;;;;;9.75;8.90;;;22.50;54.10;;;;;;5075405;28;20024;-36
2022/05/19 10:08:42;;;;;;;9.80;8.90;;;22.50;54.00;;;;;;5100202;28;20028;-36
2022/05/19 10:11:16;;;;;;;9.82;9.00;;;22.50;54.10;;;;;;5099066;28;20040;-35
2022/05/19 10:13:54;;;;;;;9.18;8.38;;;22.50;54.10;;;;;;5099842;28;20036;-37
2022/05/19 10:16:38;;;;;;;9.70;8.90;;;22.50;54.10;;;;;;5094197;28;20083;-36
2022/05/19 10:19:13;;;;;;;9.73;8.90;;;22.50;54.10;;;;;;5079500;28;20288;-36
2022/05/19 10:22:03;;;;;;;154.15;85.05;;;22.50;54.00;;;;;;5096762;28;20036;-37
2022/05/19 10:25:06;;;;;;;318.70;167.60;;;22.50;54.30;;;;;;5042216;28;20032;-35
2022/05/19 10:31:04;;;;;;;351.98;151.20;;;22.40;54.60;;;;;;5099496;28;20063;-37
2022/05/19 10:34:08;;;;;;;321.67;131.07;;;22.40;54.70;;;;;;5072453;28;20702;-38
2022/05/19 10:37:04;;;;;;;315.25;133.52;;;22.40;54.90;;;;;;4997493;28;20049;-40
2022/05/19 10:39:30;;;;;;;305.67;134.45;;;22.40;54.90;;;;;;4982766;28;20509;-37
2022/05/19 10:42:20;;;;;;;302.88;135.10;;;22.40;55.00;;;;;;4996472;28;20037;-37
2022/05/19 10:44:54;;;;;;;264.52;115.32;;;22.30;55.00;;;;;;4997272;28;20034;-37
2022/05/19 10:47:38;;;;;;;264.63;115.97;;;22.30;54.90;;;;;;4982266;28;20064;-37
2022/05/19 10:50:18;;;;;;;284.92;120.50;;;22.30;55.00;;;;;;4984981;28;20177;-36
2022/05/19 10:52:53;;;;;;;261.88;118.85;;;22.30;55.10;;;;;;5002976;28;20088;-37
2022/05/19 10:56:00;;;;;;;266.25;119.25;;;22.30;55.00;;;;;;5019502;28;20038;-36
2022/05/19 10:58:42;;;;;;;254.00;111.72;;;22.20;54.90;;;;;;4995958;28;20042;-37
2022/05/19 11:01:14;;;;;;;223.75;104.50;;;22.20;54.80;;;;;;5001202;28;20030;-37
2022/05/19 11:04:05;;;;;;;222.15;98.78;;;22.20;54.70;;;;;;4999630;28;20069;-36
2022/05/19 11:07:13;;;;;;;239.02;107.40;;;22.20;54.70;;;;;;4999579;28;20042;-36
2022/05/19 11:10:10;;;;;;;232.52;103.90;;;22.10;54.70;;;;;;4999478;28;20042;-37
2022/05/19 11:13:00;;;;;;;245.90;110.25;;;22.10;54.70;;;;;;5037120;28;20040;-37
2022/05/19 11:15:46;;;;;;;240.05;110.30;;;22.10;54.70;;;;;;5084001;28;20035;-36
2022/05/19 11:18:50;;;;;;;226.07;103.80;;;22.10;54.60;;;;;;5083721;28;20118;-36
2022/05/19 11:21:38;;;;;;;237.95;108.10;;;22.10;54.50;;;;;;5078861;28;20024;-36
2022/05/19 11:24:24;;;;;;;;;;;22.00;54.50;;;;;;5068707;28;20112;-37
2022/05/19 11:26:57;;;;;;;229.38;101.93;;;22.00;54.50;;;;;;5087842;28;19953;-37
2022/05/19 11:29:48;;;;;;;223.10;101.45;;;22.00;54.40;;;;;;5103860;28;20040;-36
2022/05/19 11:32:25;;;;;;;214.15;100.03;;;22.00;54.40;;;;;;5073242;28;20036;-37
2022/05/19 11:35:13;;;;;;;231.38;98.93;;;21.90;54.40;;;;;;5087234;28;20039;-36
2022/05/19 11:37:54;;;;;;;223.20;102.30;;;21.90;54.30;;;;;;5105530;28;20062;-37
2022/05/19 11:40:35;;;;;;;210.68;100.50;;;21.90;54.30;;;;;;5105350;28;20024;-37
2022/05/19 11:43:10;;;;;;;204.32;95.32;;;21.90;54.30;;;;;;5087169;28;20122;-37
2022/05/19 11:45:45;;;;;;;198.50;94.20;;;21.90;54.30;;;;;;5105530;28;20075;-36
2022/05/19 11:58:29;;;;;;;194.07;92.72;;;21.80;54.30;;;;;;5089798;28;20039;-37
2022/05/19 12:01:03;;;;;;;180.00;87.10;;;21.80;54.30;;;;;;5041859;28;20103;-36
2022/05/19 12:03:43;;;;;;;178.23;89.55;;;21.70;54.20;;;;;;5042191;28;20042;-36
2022/05/19 12:06:10;;;;;;;177.63;89.15;;;21.70;54.30;;;;;;5042115;28;20029;-41
2022/05/19 12:08:57;;;;;;;174.60;87.45;;;21.70;54.20;;;;;;5042162;28;20083;-37
2022/05/19 12:11:26;;;;;;;168.60;83.95;;;21.70;54.30;;;;;;5033993;28;20040;-36
2022/05/19 12:14:16;;;;;;;170.27;83.93;;;21.70;54.20;;;;;;5061918;28;20028;-37
2022/05/19 12:16:52;;;;;;;175.55;83.43;;;21.70;54.30;;;;;;5040138;28;20064;-36
2022/05/19 12:19:37;;;;;;;173.88;84.82;;;21.60;54.20;;;;;;5041830;28;20039;-36
2022/05/19 12:22:10;;;;;;;179.57;84.07;;;21.60;54.30;;;;;;5035752;28;20540;-36
2022/05/19 12:24:40;;;;;;;164.02;84.30;;;21.60;54.20;;;;;;5006112;28;20037;-37
2022/05/19 12:27:16;;;;;;;165.85;81.88;;;21.60;54.30;;;;;;5024246;28;20033;-37
2022/05/19 12:33:24;;;;;;;154.43;78.25;;;21.60;54.30;;;;;;5041476;28;20078;-37
2022/05/19 12:35:53;;;;;;;167.27;81.28;;;21.60;54.20;;;;;;5034923;28;20067;-36
2022/05/19 12:38:45;;;;;;;155.75;76.80;;;21.60;54.30;;;;;;5078214;28;20036;-36
2022/05/19 12:41:36;;;;;;;154.75;79.47;;;21.60;54.30;;;;;;5074502;28;20077;-37
2022/05/19 12:44:30;;;;;;;145.15;77.43;;;21.50;54.30;;;;;;5085974;28;20088;-37
2022/05/19 12:47:11;;;;;;;151.55;77.85;;;21.50;54.30;;;;;;5104438;28;20047;-37
2022/05/19 12:49:38;;;;;;;154.55;78.22;;;21.50;54.30;;;;;;5071447;28;20032;-36
2022/05/19 12:52:14;;;;;;;138.60;70.60;;;21.50;54.40;;;;;;5069522;28;20032;-37
2022/05/19 12:55:10;;;;;;;145.20;74.20;;;21.50;54.50;;;;;;5104020;28;20028;-37
2022/05/19 12:57:36;;;;;;;138.50;69.45;;;21.50;54.50;;;;;;5062168;28;20040;-37
2022/05/19 13:00:06;;;;;;;138.45;73.28;;;21.50;54.50;;;;;;5103618;28;20054;-37
2022/05/19 13:03:08;;;;;;;145.43;72.03;;;21.50;54.50;;;;;;5104274;28;20095;-37
2022/05/19 13:05:39;;;;;;;131.10;70.35;;;21.50;54.60;;;;;;5088976;28;20027;-37
2022/05/19 13:08:29;;;;;;;132.27;68.20;;;21.50;54.60;;;;;;5086165;28;20028;-36
2022/05/19 13:10:55;;;;;;;133.68;68.40;;;21.50;54.70;;;;;;4994584;28;20034;-36
2022/05/19 13:13:47;;;;;;;132.57;68.10;;;21.50;54.80;;;;;;4988424;28;20046;-37
2022/05/19 13:16:17;;;;;;;128.27;65.82;;;21.50;54.80;;;;;;4965744;28;20039;-36
2022/05/19 13:18:56;;;;;;;119.97;65.32;;;21.50;54.80;;;;;;4996072;28;20114;-36
2022/05/19 13:21:35;;;;;;;123.40;64.07;;;21.50;54.80;;;;;;4984795;28;20042;-36
2022/05/19 13:24:10;;;;;;;116.75;62.38;;;21.50;54.80;;;;;;4985758;28;20489;-36
2022/05/19 13:26:40;;;;;;;122.43;64.05;;;21.50;54.80;;;;;;4984876;28;20100;-36
2022/05/19 13:32:06;;;;;;;112.20;60.40;;;21.50;54.90;;;;;;4981678;28;20054;-37